Terminal Aerodrome Forecast
Issued by NWS Boise, ID

Home | Current Version | Previous Version | Text Only | Print | Product List | Glossary On
Versions: 1 2 3 4 5 6 7 8 9 10 11 12 13 14
000
FTUS45 KBOI 260520
TAFBNO
TAF
KBNO 260520Z 2606/2706 23011G16KT P6SM SCT040 OVC090
      TEMPO 2606/2608 -SHRA BKN015
     FM260800 22006KT P6SM SCT020 OVC035
     FM261200 22006KT 5SM -RA BR OVC015
     FM262000 25015G23KT 5SM -RA BR BKN015
     FM270300 25010KT P6SM BKN035=

USA.gov is the U.S. government's official web portal to all federal, state and local government web resources and services.